createdAt,value
2017-06-09T00:00:12.879Z,0
2017-06-09T00:01:23.228Z,0
2017-06-09T00:02:33.584Z,0
2017-06-09T00:03:43.923Z,0
2017-06-09T00:04:54.267Z,0
2017-06-09T00:06:04.319Z,0
2017-06-09T00:07:14.731Z,0
2017-06-09T00:08:24.768Z,0
2017-06-09T00:09:35.122Z,0
2017-06-09T00:10:45.484Z,0
2017-06-09T00:11:55.216Z,0
2017-06-09T00:13:05.266Z,0
2017-06-09T00:14:15.312Z,0
2017-06-09T00:15:25.694Z,0
2017-06-09T00:16:35.435Z,0
2017-06-09T00:17:45.782Z,0
2017-06-09T00:18:55.826Z,0
2017-06-09T00:20:06.185Z,0
2017-06-09T00:21:16.538Z,0
2017-06-09T00:22:26.935Z,0
2017-06-09T00:23:37.303Z,0
2017-06-09T00:24:47.342Z,0
2017-06-09T00:25:57.682Z,0
2017-06-09T00:27:08.023Z,0
2017-06-09T00:28:18.449Z,0
2017-06-09T00:29:28.831Z,0
2017-06-09T00:30:38.877Z,0
2017-06-09T00:31:49.223Z,0
2017-06-09T00:32:59.561Z,0
2017-06-09T00:34:09.930Z,0
2017-06-09T00:35:19.967Z,0
2017-06-09T00:36:29.991Z,0
2017-06-09T00:37:40.414Z,0
2017-06-09T00:38:50.755Z,0
2017-06-09T00:40:01.144Z,0
2017-06-09T00:41:11.481Z,0
2017-06-09T00:42:21.821Z,0
2017-06-09T00:43:31.851Z,0
2017-06-09T00:44:41.894Z,0
2017-06-09T00:45:52.336Z,0
2017-06-09T00:47:02.695Z,0
2017-06-09T00:48:13.035Z,0
2017-06-09T00:49:23.394Z,0
2017-06-09T00:50:33.742Z,0
2017-06-09T00:51:43.782Z,0
2017-06-09T00:52:53.831Z,0
2017-06-09T00:54:03.891Z,0
2017-06-09T00:55:14.230Z,0
2017-06-09T00:56:24.588Z,0
2017-06-09T00:57:34.934Z,0
2017-06-09T00:58:45.294Z,0
2017-06-09T00:59:55.652Z,0
2017-06-09T01:01:05.708Z,0
2017-06-09T01:02:16.043Z,0
2017-06-09T01:03:26.536Z,0
2017-06-09T01:04:35.939Z,0
2017-06-09T01:05:46.293Z,0
2017-06-09T01:06:56.338Z,0
2017-06-09T01:08:06.376Z,0
2017-06-09T01:09:16.766Z,0
2017-06-09T01:10:27.115Z,0
2017-06-09T01:11:37.489Z,0
2017-06-09T01:12:47.847Z,0
2017-06-09T01:13:58.191Z,0
2017-06-09T01:15:08.600Z,0
2017-06-09T01:16:18.955Z,0
2017-06-09T01:17:29.317Z,0
2017-06-09T01:18:39.668Z,0
2017-06-09T01:19:50.012Z,0
2017-06-09T01:21:00.049Z,0
2017-06-09T01:22:10.404Z,0
2017-06-09T01:23:20.432Z,0
2017-06-09T01:24:30.776Z,0
2017-06-09T01:25:41.119Z,0
2017-06-09T01:26:51.472Z,0
2017-06-09T01:28:01.822Z,0
2017-06-09T01:29:11.855Z,0
2017-06-09T01:30:22.193Z,0
2017-06-09T01:31:32.539Z,0
2017-06-09T01:32:42.638Z,0
2017-06-09T01:33:52.978Z,0
2017-06-09T01:35:03.311Z,0
2017-06-09T01:36:13.666Z,0
2017-06-09T01:37:24.007Z,0
2017-06-09T01:38:34.079Z,0
2017-06-09T01:39:44.454Z,0
2017-06-09T01:40:54.823Z,0
2017-06-09T01:42:05.170Z,0
2017-06-09T01:43:15.515Z,0
2017-06-09T01:44:25.901Z,0
2017-06-09T01:45:36.254Z,0
2017-06-09T01:46:46.618Z,0
2017-06-09T01:47:56.950Z,0
2017-06-09T01:49:07.309Z,0
2017-06-09T01:50:17.655Z,0
2017-06-09T01:51:28.108Z,0
2017-06-09T01:52:38.454Z,0
2017-06-09T01:53:48.798Z,0
2017-06-09T01:54:59.153Z,0
2017-06-09T01:56:09.534Z,0
2017-06-09T01:57:19.875Z,0
2017-06-09T01:58:29.919Z,0
2017-06-09T01:59:40.256Z,0
2017-06-09T02:00:50.599Z,0
2017-06-09T02:02:00.996Z,0
2017-06-09T02:03:11.337Z,0
2017-06-09T02:04:21.078Z,0
2017-06-09T02:05:31.417Z,0
2017-06-09T02:06:41.459Z,0
2017-06-09T02:07:51.489Z,0
2017-06-09T02:09:01.515Z,0
2017-06-09T02:10:11.872Z,0
2017-06-09T02:11:21.594Z,0
2017-06-09T02:12:31.940Z,4
2017-06-09T02:13:41.718Z,4
2017-06-09T02:14:51.772Z,0
2017-06-09T02:16:01.807Z,0
2017-06-09T02:17:12.161Z,4
2017-06-09T02:18:22.194Z,4
2017-06-09T02:19:32.227Z,4
2017-06-09T02:20:42.557Z,4
2017-06-09T02:21:52.900Z,4
2017-06-09T02:23:03.242Z,8
2017-06-09T02:24:13.283Z,4
2017-06-09T02:25:23.662Z,4
2017-06-09T02:26:33.994Z,8
2017-06-09T02:27:44.344Z,8
2017-06-09T02:28:54.385Z,12
2017-06-09T02:30:04.734Z,12
2017-06-09T02:31:15.080Z,12
2017-06-09T02:32:24.803Z,16
2017-06-09T02:33:35.164Z,20
2017-06-09T02:34:45.525Z,24
2017-06-09T02:35:55.261Z,28
2017-06-09T02:37:05.657Z,32
2017-06-09T02:38:16.006Z,36
2017-06-09T02:39:26.354Z,40
2017-06-09T02:40:36.709Z,44
2017-06-09T02:41:47.081Z,52
2017-06-09T02:42:57.484Z,56
2017-06-09T02:44:07.527Z,68
2017-06-09T02:45:17.866Z,76
2017-06-09T02:46:28.216Z,88
2017-06-09T02:47:38.549Z,92
2017-06-09T02:48:48.945Z,108
2017-06-09T02:49:59.313Z,120
2017-06-09T02:51:09.662Z,132
2017-06-09T02:52:19.688Z,144
2017-06-09T02:53:30.029Z,160
2017-06-09T02:54:40.383Z,180
2017-06-09T02:55:50.720Z,196
2017-06-09T02:57:00.753Z,212
2017-06-09T02:58:11.109Z,232
2017-06-09T02:59:21.464Z,252
2017-06-09T03:00:31.849Z,272
2017-06-09T03:01:42.182Z,296
2017-06-09T03:33:08.564Z,1044
2017-06-09T03:34:18.896Z,1072
2017-06-09T03:35:28.619Z,1104
2017-06-09T03:36:38.963Z,1128
2017-06-09T03:37:49.305Z,1156
2017-06-09T03:38:59.697Z,1184
2017-06-09T03:40:09.724Z,1212
2017-06-09T03:41:19.458Z,1240
2017-06-09T03:42:29.811Z,1268
2017-06-09T03:43:40.153Z,1296
2017-06-09T03:44:50.226Z,1324
2017-06-09T03:45:59.627Z,1348
2017-06-09T03:47:09.989Z,1376
2017-06-09T03:48:20.369Z,1412
2017-06-09T03:49:30.417Z,1592
2017-06-09T03:50:40.790Z,1644
2017-06-09T03:51:51.145Z,1544
2017-06-09T03:53:01.486Z,1520
2017-06-09T03:54:11.834Z,1544
2017-06-09T03:55:22.221Z,1572
2017-06-09T03:56:32.624Z,1596
2017-06-09T03:57:42.995Z,1624
2017-06-09T03:58:53.348Z,1652
2017-06-09T04:00:03.388Z,1676
2017-06-09T04:01:13.741Z,1700
2017-06-09T04:02:23.766Z,1728
2017-06-09T04:03:34.106Z,1756
2017-06-09T04:04:44.452Z,1784
2017-06-09T04:05:54.540Z,1824
2017-06-09T04:07:04.574Z,1860
2017-06-09T04:08:14.965Z,1896
2017-06-09T04:09:25.300Z,1924
2017-06-09T04:10:35.323Z,1960
2017-06-09T04:11:45.373Z,1992
2017-06-09T04:12:55.093Z,2028
2017-06-09T04:14:05.445Z,2056
2017-06-09T04:15:15.167Z,2096
2017-06-09T04:16:25.523Z,2140
2017-06-09T04:17:35.863Z,6164
2017-06-09T04:18:46.223Z,16448
2017-06-09T04:19:55.996Z,19392
2017-06-09T04:21:06.046Z,18944
2017-06-09T04:22:16.403Z,19936
2017-06-09T04:23:26.751Z,19776
2017-06-09T04:24:36.789Z,19584
2017-06-09T04:25:47.118Z,19648
2017-06-09T04:26:57.151Z,19296
2017-06-09T04:28:07.492Z,19040
2017-06-09T04:29:17.842Z,18784
2017-06-09T04:30:28.194Z,18912
2017-06-09T04:31:38.283Z,18912
2017-06-09T04:32:48.619Z,19168
2017-06-09T04:33:58.342Z,18944
2017-06-09T04:35:08.682Z,19200
2017-06-09T04:36:19.034Z,19520
2017-06-09T04:37:29.386Z,19712
2017-06-09T04:38:39.738Z,19328
2017-06-09T04:39:49.775Z,19104
2017-06-09T04:40:59.810Z,18848
2017-06-09T04:42:09.851Z,18720
2017-06-09T04:43:20.205Z,18848
2017-06-09T04:44:30.255Z,19072
2017-06-09T04:45:40.599Z,18720
2017-06-09T04:46:50.968Z,18560
2017-06-09T04:48:01.305Z,18336
2017-06-09T04:49:11.671Z,18496
2017-06-09T04:50:21.706Z,18272
2017-06-09T04:51:32.072Z,17632
2017-06-09T04:52:42.427Z,16992
2017-06-09T04:53:52.457Z,16768
2017-06-09T04:55:02.557Z,16640
2017-06-09T04:56:12.614Z,16384
2017-06-09T04:57:22.696Z,16448
2017-06-09T04:58:33.067Z,16480
2017-06-09T04:59:43.430Z,16832
2017-06-09T05:00:53.841Z,16640
2017-06-09T05:02:03.897Z,16256
2017-06-09T05:03:13.628Z,16288
2017-06-09T05:04:23.670Z,16672
2017-06-09T05:05:33.718Z,16800
2017-06-09T05:06:43.206Z,16704
2017-06-09T05:07:53.253Z,16480
2017-06-09T05:09:02.980Z,16544
2017-06-09T05:10:13.336Z,16608
2017-06-09T05:11:23.485Z,16736
2017-06-09T05:12:33.889Z,16832
2017-06-09T05:13:43.641Z,16576
2017-06-09T05:14:53.375Z,16352
2017-06-09T05:16:03.728Z,16576
2017-06-09T05:17:14.094Z,17024
2017-06-09T05:18:24.179Z,17152
2017-06-09T05:19:34.538Z,17120
2017-06-09T05:20:44.912Z,17056
2017-06-09T05:21:55.275Z,17184
2017-06-09T05:23:05.640Z,17120
2017-06-09T05:24:16.031Z,17152
2017-06-09T05:25:26.058Z,17088
2017-06-09T05:26:36.426Z,17120
2017-06-09T05:27:46.183Z,17056
2017-06-09T05:28:56.227Z,17024
2017-06-09T05:30:06.646Z,17600
2017-06-09T05:31:16.726Z,17152
2017-06-09T05:32:27.071Z,16512
2017-06-09T05:33:37.122Z,16384
2017-06-09T05:34:46.842Z,16512
2017-06-09T05:35:56.628Z,16960
2017-06-09T05:37:06.054Z,16736
2017-06-09T05:38:16.092Z,17408
2017-06-09T05:39:26.130Z,17600
2017-06-09T05:40:36.175Z,17664
2017-06-09T05:41:46.579Z,17600
2017-06-09T05:42:56.630Z,14696
2017-06-09T05:44:06.680Z,11976
2017-06-09T05:45:17.018Z,13232
2017-06-09T05:46:27.058Z,11984
2017-06-09T05:47:37.111Z,11156
2017-06-09T05:48:47.456Z,12892
2017-06-09T05:49:57.805Z,12024
2017-06-09T05:51:07.549Z,12220
2017-06-09T05:52:17.904Z,13852
2017-06-09T05:53:28.266Z,13012
2017-06-09T05:54:38.671Z,14368
2017-06-09T05:55:48.715Z,12224
2017-06-09T05:56:58.752Z,10740
2017-06-09T05:58:09.111Z,12040
2017-06-09T05:59:19.218Z,9452
2017-06-09T06:00:29.574Z,9348
2017-06-09T06:01:39.937Z,10328
2017-06-09T06:02:49.975Z,9752
2017-06-09T06:04:00.015Z,12044
2017-06-09T06:05:10.098Z,13412
2017-06-09T06:06:20.140Z,14016
2017-06-09T06:07:30.492Z,14944
2017-06-09T06:08:40.842Z,14540
2017-06-09T06:09:50.889Z,14628
2017-06-09T06:11:00.996Z,14432
2017-06-09T06:12:11.356Z,13752
2017-06-09T06:13:21.706Z,13564
2017-06-09T06:14:32.058Z,11996
2017-06-09T06:15:42.110Z,13312
2017-06-09T06:16:52.509Z,13176
2017-06-09T06:18:02.882Z,12308
2017-06-09T06:19:13.247Z,12540
2017-06-09T06:20:23.295Z,13180
2017-06-09T06:21:33.339Z,12924
2017-06-09T06:22:43.689Z,12716
2017-06-09T06:23:54.037Z,12388
2017-06-09T06:25:04.409Z,12252
2017-06-09T06:26:14.769Z,12072
2017-06-09T06:27:24.817Z,11992
2017-06-09T06:28:34.881Z,11820
2017-06-09T06:29:45.231Z,11620
2017-06-09T06:30:55.261Z,11556
2017-06-09T06:32:05.631Z,11336
2017-06-09T06:33:15.986Z,11260
2017-06-09T06:34:26.075Z,11116
2017-06-09T06:35:36.105Z,10928
2017-06-09T06:36:46.473Z,10760
2017-06-09T06:37:55.899Z,10616
2017-06-09T06:39:06.252Z,10436
2017-06-09T06:40:16.341Z,10320
2017-06-09T06:41:26.707Z,10192
2017-06-09T06:42:37.070Z,10100
2017-06-09T06:43:47.411Z,9824
2017-06-09T06:44:57.483Z,9680
2017-06-09T06:46:07.905Z,9456
2017-06-09T06:47:17.955Z,9288
2017-06-09T06:48:28.300Z,9164
2017-06-09T06:49:38.655Z,8980
2017-06-09T06:50:48.708Z,8840
2017-06-09T06:51:59.120Z,8616
2017-06-09T06:53:09.158Z,8456
2017-06-09T06:54:19.512Z,8292
2017-06-09T06:55:29.870Z,8112
2017-06-09T06:56:40.228Z,7944
2017-06-09T06:57:50.630Z,7760
2017-06-09T06:59:00.990Z,7560
2017-06-09T07:00:11.346Z,7380
2017-06-09T07:01:21.708Z,7176
2017-06-09T07:02:31.749Z,7020
2017-06-09T07:03:41.786Z,6824
2017-06-09T07:04:51.846Z,6680
2017-06-09T07:06:02.201Z,6488
2017-06-09T07:07:12.580Z,6312
2017-06-09T07:08:22.921Z,6128
2017-06-09T07:09:33.327Z,5960
2017-06-09T07:10:43.362Z,5820
2017-06-09T07:11:53.463Z,5304
2017-06-09T07:13:03.193Z,4620
2017-06-09T07:14:13.238Z,4300
2017-06-09T07:15:23.593Z,4240
2017-06-09T07:16:33.757Z,4232
2017-06-09T07:17:44.102Z,4224
2017-06-09T07:18:54.155Z,4236
2017-06-09T07:20:03.880Z,4256
2017-06-09T07:21:13.955Z,4268
2017-06-09T07:22:24.065Z,4304
2017-06-09T07:23:34.093Z,4296
2017-06-09T07:24:44.459Z,4304
2017-06-09T07:25:54.509Z,4300
2017-06-09T07:27:04.626Z,4320
2017-06-09T07:28:14.989Z,4324
2017-06-09T07:29:25.037Z,4340
2017-06-09T07:30:35.419Z,4348
2017-06-09T07:31:45.768Z,4368
2017-06-09T07:32:55.862Z,4384
2017-06-09T07:34:06.245Z,4396
2017-06-09T07:35:16.280Z,4412
2017-06-09T07:36:26.014Z,4432
2017-06-09T07:37:36.360Z,4412
2017-06-09T07:38:46.461Z,4424
2017-06-09T07:39:56.527Z,4444
2017-06-09T07:41:06.902Z,4480
2017-06-09T07:42:17.252Z,4472
2017-06-09T07:43:27.600Z,4480
2017-06-09T07:44:38.024Z,4508
2017-06-09T07:45:48.372Z,4528
2017-06-09T07:46:58.407Z,4548
2017-06-09T07:48:08.435Z,4556
2017-06-09T07:49:18.466Z,4560
2017-06-09T07:50:28.579Z,4580
2017-06-09T07:51:38.320Z,4608
2017-06-09T07:52:48.356Z,4632
2017-06-09T07:53:58.378Z,4648
2017-06-09T07:55:08.724Z,4652
2017-06-09T07:56:19.125Z,4684
2017-06-09T07:57:29.482Z,4704
2017-06-09T07:58:39.834Z,4700
2017-06-09T07:59:49.561Z,4724
2017-06-09T08:00:59.917Z,4732
2017-06-09T08:02:09.947Z,4760
2017-06-09T08:03:20.282Z,4776
2017-06-09T08:04:30.328Z,4772
2017-06-09T08:05:40.674Z,4804
2017-06-09T08:06:50.712Z,4836
2017-06-09T08:08:01.069Z,4848
2017-06-09T08:09:11.417Z,4848
2017-06-09T08:10:21.786Z,4864
2017-06-09T08:11:32.145Z,4880
2017-06-09T08:12:42.195Z,4904
2017-06-09T08:13:52.845Z,4912
2017-06-09T08:15:03.205Z,4912
2017-06-09T08:16:13.246Z,4912
2017-06-09T08:17:23.598Z,4932
2017-06-09T08:18:33.980Z,4948
2017-06-09T08:19:44.402Z,4964
2017-06-09T08:20:54.750Z,4972
2017-06-09T08:22:05.106Z,4948
2017-06-09T08:23:15.461Z,4992
2017-06-09T08:24:25.803Z,4988
2017-06-09T08:25:36.145Z,5020
2017-06-09T08:26:46.183Z,5036
2017-06-09T08:27:56.529Z,5032
2017-06-09T08:29:06.882Z,5036
2017-06-09T08:30:17.248Z,5036
2017-06-09T08:31:27.657Z,5068
2017-06-09T08:32:38.031Z,5068
2017-06-09T08:33:48.374Z,5080
2017-06-09T08:34:58.731Z,5092
2017-06-09T08:36:08.466Z,5092
2017-06-09T08:37:18.874Z,5128
2017-06-09T08:38:28.286Z,5132
2017-06-09T08:39:38.340Z,5136
2017-06-09T08:40:48.691Z,5164
2017-06-09T08:41:59.057Z,5172
2017-06-09T08:43:09.120Z,5184
2017-06-09T08:44:19.165Z,5184
2017-06-09T08:45:29.521Z,5188
2017-06-09T08:46:39.876Z,5180
2017-06-09T08:47:50.239Z,5228
2017-06-09T08:49:00.340Z,5212
2017-06-09T08:50:10.693Z,5240
2017-06-09T08:51:20.755Z,5248
2017-06-09T08:52:31.122Z,5272
2017-06-09T08:53:41.492Z,5264
2017-06-09T08:54:51.899Z,5284
2017-06-09T08:56:01.937Z,5296
2017-06-09T08:57:12.287Z,5328
2017-06-09T08:58:22.632Z,5332
2017-06-09T08:59:32.671Z,5324
2017-06-09T09:00:43.200Z,5328
2017-06-09T09:01:53.270Z,5356
2017-06-09T09:03:03.323Z,5348
2017-06-09T09:04:13.375Z,5372
2017-06-09T09:05:23.726Z,5372
2017-06-09T09:06:34.132Z,5404
2017-06-09T09:07:44.490Z,5400
2017-06-09T09:08:54.843Z,5416
2017-06-09T09:10:05.209Z,5448
2017-06-09T09:11:15.577Z,5440
2017-06-09T09:12:25.954Z,5472
2017-06-09T09:13:36.315Z,5468
2017-06-09T09:14:46.666Z,5500
2017-06-09T09:15:57.019Z,5492
2017-06-09T09:17:07.374Z,5524
2017-06-09T09:18:17.735Z,5548
2017-06-09T09:19:28.097Z,5540
2017-06-09T09:20:38.455Z,5576
2017-06-09T09:21:48.824Z,5604
2017-06-09T09:22:59.232Z,5588
2017-06-09T09:24:09.645Z,5616
2017-06-09T09:25:19.386Z,5612
2017-06-09T09:26:29.842Z,5648
2017-06-09T09:27:40.189Z,5668
2017-06-09T09:28:50.599Z,5708
2017-06-09T09:30:01.008Z,5684
2017-06-09T09:31:11.371Z,5684
2017-06-09T09:32:21.730Z,5704
2017-06-09T09:33:32.086Z,5716
2017-06-09T09:34:42.132Z,5744
2017-06-09T09:35:52.228Z,5752
2017-06-09T09:37:02.588Z,5748
2017-06-09T09:38:12.936Z,5756
2017-06-09T09:39:23.061Z,5788
2017-06-09T09:40:33.105Z,5796
2017-06-09T09:41:43.186Z,5812
2017-06-09T09:42:53.524Z,5828
2017-06-09T09:44:03.881Z,5840
2017-06-09T09:45:13.927Z,5856
2017-06-09T09:46:24.279Z,5868
2017-06-09T09:47:34.665Z,5888
2017-06-09T09:48:44.711Z,5908
2017-06-09T09:49:54.752Z,5920
2017-06-09T09:51:04.805Z,5912
2017-06-09T09:52:15.168Z,5944
2017-06-09T09:53:25.251Z,5948
2017-06-09T09:54:35.640Z,5948
2017-06-09T09:55:45.712Z,5968
2017-06-09T09:56:55.769Z,5992
2017-06-09T09:58:06.128Z,6024
2017-06-09T09:59:16.226Z,6040
2017-06-09T10:00:26.584Z,6044
2017-06-09T10:01:36.949Z,6048
2017-06-09T10:02:47.303Z,6080
2017-06-09T10:03:57.662Z,6100
2017-06-09T10:05:07.451Z,6104
2017-06-09T10:06:17.818Z,6128
2017-06-09T10:07:28.170Z,6144
2017-06-09T10:08:38.211Z,6164
2017-06-09T10:09:48.259Z,6180
2017-06-09T10:10:58.064Z,6192
2017-06-09T10:12:08.485Z,6180
2017-06-09T10:13:18.523Z,6168
2017-06-09T10:14:28.874Z,6224
2017-06-09T10:15:38.598Z,6232
2017-06-09T10:16:48.683Z,6272
2017-06-09T10:17:59.031Z,6288
2017-06-09T10:19:09.386Z,6312
2017-06-09T10:20:19.429Z,6316
2017-06-09T10:21:29.785Z,6332
2017-06-09T10:22:39.819Z,6344
2017-06-09T10:23:49.865Z,6364
2017-06-09T10:24:59.906Z,6392
2017-06-09T10:26:09.982Z,6388
2017-06-09T10:27:20.340Z,6412
2017-06-09T10:28:30.506Z,6432
2017-06-09T10:29:40.559Z,6428
2017-06-09T10:30:50.587Z,6456
2017-06-09T10:32:00.634Z,6492
2017-06-09T10:33:10.989Z,6496
2017-06-09T10:34:21.089Z,6524
2017-06-09T10:35:31.478Z,6532
2017-06-09T10:36:41.823Z,6532
2017-06-09T10:37:51.866Z,6552
2017-06-09T10:39:02.222Z,6368
2017-06-09T10:40:12.653Z,6620
2017-06-09T10:41:23.021Z,6648
2017-06-09T10:42:33.371Z,6672
2017-06-09T10:43:43.849Z,6704
2017-06-09T10:44:54.211Z,6708
2017-06-09T10:46:04.609Z,6708
2017-06-09T10:47:14.956Z,6772
2017-06-09T10:48:25.303Z,6796
2017-06-09T10:49:35.669Z,6808
2017-06-09T10:50:46.042Z,6828
2017-06-09T10:51:56.465Z,6828
2017-06-09T10:53:06.518Z,6888
2017-06-09T10:54:16.877Z,6876
2017-06-09T10:55:27.237Z,6876
2017-06-09T10:56:37.607Z,6916
2017-06-09T10:57:48.006Z,6960
2017-06-09T10:58:58.363Z,6932
2017-06-09T11:00:08.725Z,6876
2017-06-09T11:01:19.071Z,6932
2017-06-09T11:02:29.402Z,6892
2017-06-09T11:03:39.220Z,6912
2017-06-09T11:04:49.612Z,6888
2017-06-09T11:05:59.659Z,6908
2017-06-09T11:07:09.715Z,6852
2017-06-09T11:08:19.751Z,6928
2017-06-09T11:09:30.161Z,6912
2017-06-09T11:10:40.566Z,7008
2017-06-09T11:11:50.924Z,7056
2017-06-09T11:13:00.677Z,7132
2017-06-09T11:14:11.104Z,7164
2017-06-09T11:15:21.528Z,7144
2017-06-09T11:16:31.567Z,7220
2017-06-09T11:17:41.959Z,7288
2017-06-09T11:18:52.007Z,7340
2017-06-09T11:20:02.373Z,7312
2017-06-09T11:21:12.738Z,7312
2017-06-09T11:22:22.772Z,7328
2017-06-09T11:23:32.829Z,7240
2017-06-09T11:24:43.203Z,7236
2017-06-09T11:25:52.950Z,7072
2017-06-09T11:27:03.439Z,6992
2017-06-09T11:28:13.791Z,7112
2017-06-09T11:29:24.154Z,7060
2017-06-09T11:30:34.213Z,7076
2017-06-09T11:31:44.575Z,7224
2017-06-09T11:32:54.676Z,7180
2017-06-09T11:34:05.025Z,7188
2017-06-09T11:35:15.368Z,7272
2017-06-09T11:36:25.728Z,7324
2017-06-09T11:37:35.771Z,7332
2017-06-09T11:38:46.176Z,7260
2017-06-09T11:39:56.522Z,7292
2017-06-09T11:41:06.859Z,7312
2017-06-09T11:42:16.589Z,7312
2017-06-09T11:43:26.951Z,7288
2017-06-09T11:44:37.343Z,7252
2017-06-09T11:45:47.690Z,7264
2017-06-09T11:46:58.051Z,7236
2017-06-09T11:48:08.399Z,7252
2017-06-09T11:49:18.770Z,7192
2017-06-09T11:50:29.216Z,7200
2017-06-09T11:51:39.569Z,7236
2017-06-09T11:52:49.603Z,7224
2017-06-09T11:53:59.965Z,7280
2017-06-09T11:55:10.324Z,7284
2017-06-09T11:56:20.107Z,7232
2017-06-09T11:57:30.466Z,7264
2017-06-09T11:58:40.541Z,7244
2017-06-09T11:59:50.945Z,7252
2017-06-09T12:01:01.317Z,7144
2017-06-09T12:02:11.053Z,7116
2017-06-09T12:03:21.408Z,7152
2017-06-09T12:04:31.768Z,7116
2017-06-09T12:05:42.114Z,7132
2017-06-09T12:06:51.840Z,7116
2017-06-09T12:08:01.616Z,7088
2017-06-09T12:09:11.988Z,7176
2017-06-09T12:10:22.344Z,7108
2017-06-09T12:11:32.382Z,7016
2017-06-09T12:12:42.414Z,7096
2017-06-09T12:13:52.808Z,7072
2017-06-09T12:15:03.168Z,7072
2017-06-09T12:16:13.530Z,7096
2017-06-09T12:17:23.625Z,7120
2017-06-09T12:18:33.691Z,7120
2017-06-09T12:19:43.822Z,7112
2017-06-09T12:20:54.175Z,7044
2017-06-09T12:22:04.524Z,7036
2017-06-09T12:23:14.873Z,7044
2017-06-09T12:24:25.217Z,7028
2017-06-09T12:25:35.323Z,6992
2017-06-09T12:26:45.666Z,7032
2017-06-09T12:27:55.706Z,7036
2017-06-09T12:29:06.074Z,6976
2017-06-09T12:30:16.535Z,6992
2017-06-09T12:31:27.036Z,7028
2017-06-09T12:32:37.386Z,7000
2017-06-09T12:33:47.742Z,7180
2017-06-09T12:34:57.789Z,7148
2017-06-09T12:36:08.155Z,7120
2017-06-09T12:37:18.534Z,7136
2017-06-09T12:38:28.919Z,7104
2017-06-09T12:39:39.262Z,7080
2017-06-09T12:40:49.629Z,6924
2017-06-09T12:41:59.693Z,6908
2017-06-09T12:43:09.534Z,6904
2017-06-09T12:44:19.908Z,6884
2017-06-09T12:45:30.259Z,6880
2017-06-09T12:46:40.317Z,6872
2017-06-09T12:47:50.369Z,6836
2017-06-09T12:49:00.789Z,6864
2017-06-09T12:50:10.938Z,6844
2017-06-09T12:51:20.983Z,6812
2017-06-09T12:52:31.324Z,6824
2017-06-09T12:53:41.367Z,6788
2017-06-09T12:54:51.798Z,6752
2017-06-09T12:56:02.156Z,6728
2017-06-09T12:57:12.203Z,6712
2017-06-09T12:58:21.938Z,6740
2017-06-09T12:59:32.290Z,6668
2017-06-09T13:00:42.377Z,6684
2017-06-09T13:01:52.751Z,6668
2017-06-09T13:03:03.114Z,6624
2017-06-09T13:04:13.464Z,6636
2017-06-09T13:05:23.509Z,6652
2017-06-09T13:06:33.334Z,6632
2017-06-09T13:07:43.724Z,6640
2017-06-09T13:08:54.105Z,6640
2017-06-09T13:10:04.456Z,6632
2017-06-09T13:11:14.823Z,6624
2017-06-09T13:12:25.211Z,6608
2017-06-09T13:13:35.581Z,6620
2017-06-09T13:14:45.951Z,6616
2017-06-09T13:15:56.010Z,6588
2017-06-09T13:17:06.371Z,6560
2017-06-09T13:18:16.799Z,6524
2017-06-09T13:19:27.197Z,6504
2017-06-09T13:20:37.240Z,6500
2017-06-09T13:21:47.604Z,6468
2017-06-09T13:22:57.651Z,6492
2017-06-09T13:24:08.055Z,6456
2017-06-09T13:25:18.430Z,6452
2017-06-09T13:26:28.470Z,6448
2017-06-09T13:27:38.828Z,6432
2017-06-09T13:28:49.188Z,6404
2017-06-09T13:29:59.538Z,6388
2017-06-09T13:31:09.886Z,6352
2017-06-09T13:32:20.250Z,6348
2017-06-09T13:33:30.610Z,6340
2017-06-09T13:34:40.349Z,6312
2017-06-09T13:35:50.705Z,6296
2017-06-09T13:37:00.447Z,6280
2017-06-09T13:38:10.491Z,6280
2017-06-09T13:39:20.846Z,6248
2017-06-09T13:40:31.199Z,6236
2017-06-09T13:41:41.620Z,6216
2017-06-09T13:42:51.657Z,6196
2017-06-09T13:44:02.071Z,6172
2017-06-09T13:45:12.126Z,6164
2017-06-09T13:46:22.195Z,6148
2017-06-09T13:47:32.598Z,6140
2017-06-09T13:48:42.640Z,6104
2017-06-09T13:49:52.681Z,6080
2017-06-09T13:51:03.072Z,6064
2017-06-09T13:52:13.436Z,6072
2017-06-09T13:53:22.901Z,6064
2017-06-09T13:54:33.253Z,6052
2017-06-09T13:55:43.613Z,6048
2017-06-09T13:56:53.663Z,6000
2017-06-09T13:58:03.409Z,6000
2017-06-09T13:59:13.834Z,5976
2017-06-09T14:00:24.194Z,5972
2017-06-09T14:01:34.243Z,5948
2017-06-09T14:02:44.594Z,5908
2017-06-09T14:03:54.660Z,5880
2017-06-09T14:05:05.064Z,5884
2017-06-09T14:06:15.092Z,5888
2017-06-09T14:07:25.457Z,5872
2017-06-09T14:08:35.833Z,5848
2017-06-09T14:09:46.184Z,5792
2017-06-09T14:10:56.595Z,5748
2017-06-09T14:12:06.948Z,5740
2017-06-09T14:13:17.302Z,5716
2017-06-09T14:14:27.043Z,5696
2017-06-09T14:15:37.123Z,5632
2017-06-09T14:16:47.453Z,5648
2017-06-09T14:17:57.519Z,5580
2017-06-09T14:19:07.562Z,5572
2017-06-09T14:20:16.985Z,5620
2017-06-09T14:21:27.349Z,5656
2017-06-09T14:22:37.710Z,5616
2017-06-09T14:23:48.081Z,5608
2017-06-09T14:24:58.464Z,5544
2017-06-09T14:26:08.844Z,5520
2017-06-09T14:27:19.203Z,5548
2017-06-09T14:28:29.600Z,5480
2017-06-09T14:29:39.671Z,5396
2017-06-09T14:30:50.055Z,5392
2017-06-09T14:32:00.707Z,5272
2017-06-09T14:33:11.089Z,5388
2017-06-09T14:34:21.751Z,5292
2017-06-09T14:35:31.780Z,5248
2017-06-09T14:36:42.164Z,5268
2017-06-09T14:37:52.694Z,5260
2017-06-09T14:39:03.090Z,5300
2017-06-09T14:40:13.449Z,5312
2017-06-09T14:41:23.523Z,5304
2017-06-09T14:42:33.886Z,5224
2017-06-09T14:43:44.229Z,5184
2017-06-09T14:44:54.295Z,5168
2017-06-09T14:46:04.945Z,5204
2017-06-09T14:47:15.309Z,5148
2017-06-09T14:48:25.664Z,5124
2017-06-09T14:49:35.723Z,5120
2017-06-09T14:50:45.777Z,5136
2017-06-09T14:51:56.192Z,5068
2017-06-09T14:53:06.567Z,5076
2017-06-09T14:54:16.303Z,5052
2017-06-09T14:55:26.686Z,5000
2017-06-09T14:56:36.736Z,4964
2017-06-09T14:57:46.836Z,4964
2017-06-09T14:58:56.902Z,4924
2017-06-09T15:00:06.973Z,4888
2017-06-09T15:01:17.334Z,4880
2017-06-09T15:02:27.677Z,4856
2017-06-09T15:03:37.764Z,4832
2017-06-09T15:04:47.817Z,4820
2017-06-09T15:05:58.181Z,4792
2017-06-09T15:07:08.543Z,4804
2017-06-09T15:08:18.913Z,4784
2017-06-09T15:09:29.330Z,4748
2017-06-09T15:10:39.700Z,4728
2017-06-09T15:11:49.751Z,4716
2017-06-09T15:12:59.802Z,4712
2017-06-09T15:14:09.844Z,4680
2017-06-09T15:15:20.246Z,4664
2017-06-09T15:16:30.602Z,4648
2017-06-09T15:17:40.355Z,4628
2017-06-09T15:18:50.097Z,4604
2017-06-09T15:20:00.456Z,4596
2017-06-09T15:21:10.200Z,4556
2017-06-09T15:22:20.551Z,4540
2017-06-09T15:23:30.940Z,4532
2017-06-09T15:24:41.286Z,4512
2017-06-09T15:25:51.655Z,4508
2017-06-09T15:27:02.061Z,4476
2017-06-09T15:28:12.420Z,4468
2017-06-09T15:29:22.178Z,4456
2017-06-09T15:30:32.220Z,4428
2017-06-09T15:31:42.276Z,4408
2017-06-09T15:32:52.662Z,4396
2017-06-09T15:34:03.040Z,4372
2017-06-09T15:35:13.091Z,4352
2017-06-09T15:36:23.463Z,4328
2017-06-09T15:37:33.191Z,4312
2017-06-09T15:38:43.289Z,4292
2017-06-09T15:39:53.637Z,4272
2017-06-09T15:41:03.691Z,4248
2017-06-09T15:42:13.731Z,4232
2017-06-09T15:43:24.089Z,4228
2017-06-09T15:44:34.506Z,4204
2017-06-09T15:45:44.232Z,4168
2017-06-09T15:46:54.271Z,4168
2017-06-09T15:48:04.028Z,4152
2017-06-09T15:49:14.375Z,4140
2017-06-09T15:50:24.889Z,4128
2017-06-09T15:51:35.231Z,4124
2017-06-09T15:52:45.293Z,4108
2017-06-09T15:53:55.654Z,4084
2017-06-09T15:55:05.697Z,4084
2017-06-09T15:56:16.086Z,4072
2017-06-09T15:57:26.437Z,4052
2017-06-09T15:58:36.501Z,4040
2017-06-09T15:59:46.567Z,3996
2017-06-09T16:00:56.622Z,3944
2017-06-09T16:02:06.708Z,3860
2017-06-09T16:03:17.080Z,3852
2017-06-09T16:04:27.445Z,3688
2017-06-09T16:05:37.505Z,3708
2017-06-09T16:06:47.533Z,3636
2017-06-09T16:07:57.641Z,3456
2017-06-09T16:09:07.686Z,3256
2017-06-09T16:10:17.729Z,3348
2017-06-09T16:11:27.772Z,3268
2017-06-09T16:12:38.163Z,3260
2017-06-09T16:13:48.573Z,3140
2017-06-09T16:14:58.927Z,3124
2017-06-09T16:16:09.271Z,3100